Time;durP1;ratioP1;P1;durP2;ratioP2;P2;SDS_P1;SDS_P2;PMS_P1;PMS_P2;Temp;Humidity;BMP_temperature;BMP_pressure;BME280_temperature;BME280_humidity;BME280_pressure;Samples;Min_cycle;Max_cycle;Signal;HPM_P1;HPM_P2
2022/04/02 00:01:44;;;;;;;13.43;2.92;;;12.00;49.70;;;;;;5033807;28;20022;-77
2022/04/02 00:04:11;;;;;;;12.48;3.00;;;11.90;50.40;;;;;;5031428;28;20479;-79
2022/04/02 00:06:37;;;;;;;13.13;3.00;;;11.90;50.80;;;;;;5032913;28;20033;-77
2022/04/02 00:09:04;;;;;;;13.05;2.85;;;11.80;50.70;;;;;;5032917;28;20040;-76
2022/04/02 00:11:30;;;;;;;13.20;2.97;;;11.80;50.90;;;;;;5032685;28;20075;-76
2022/04/02 00:13:56;;;;;;;13.90;2.80;;;11.70;50.90;;;;;;5032519;28;20033;-74
2022/04/02 00:16:21;;;;;;;17.42;3.08;;;11.70;50.70;;;;;;5032623;28;20371;-78
2022/04/02 00:18:49;;;;;;;10.70;2.83;;;11.70;50.60;;;;;;5032586;28;20479;-76
2022/04/02 00:21:17;;;;;;;15.45;2.95;;;11.60;50.00;;;;;;5032467;28;20022;-77
2022/04/02 00:23:44;;;;;;;10.55;2.60;;;11.60;49.50;;;;;;5032313;28;20071;-75
2022/04/02 00:26:20;;;;;;;10.25;2.60;;;11.60;50.40;;;;;;5032245;28;20018;-76
2022/04/02 00:28:48;;;;;;;14.60;2.50;;;11.60;49.80;;;;;;5031080;28;20036;-78
2022/04/02 00:31:15;;;;;;;13.18;2.63;;;11.60;49.60;;;;;;5032409;28;20030;-76
2022/04/02 00:33:43;;;;;;;10.85;2.58;;;11.60;50.20;;;;;;5030737;28;20041;-76
2022/04/02 00:36:10;;;;;;;12.18;2.80;;;11.70;49.90;;;;;;5032083;28;20028;-76
2022/04/02 00:38:37;;;;;;;11.32;3.35;;;11.60;49.60;;;;;;5031145;28;20111;-75
2022/04/02 00:41:03;;;;;;;22.08;3.88;;;11.70;50.50;;;;;;5032306;28;20052;-77
2022/04/02 00:43:30;;;;;;;15.93;3.38;;;11.70;50.70;;;;;;5032374;28;20387;-77
2022/04/02 00:45:58;;;;;;;12.85;2.65;;;11.70;50.60;;;;;;5030917;28;20045;-77
2022/04/02 00:48:25;;;;;;;12.68;2.67;;;11.60;50.60;;;;;;5032139;28;20033;-76
2022/04/02 00:50:52;;;;;;;13.27;2.63;;;11.60;51.20;;;;;;5032142;28;20022;-77
2022/04/02 00:53:20;;;;;;;13.27;2.67;;;11.50;51.20;;;;;;5030813;28;20033;-77
2022/04/02 00:55:46;;;;;;;9.80;2.60;;;11.50;51.10;;;;;;5032287;28;20021;-77
2022/04/02 00:58:12;;;;;;;17.33;3.08;;;11.50;50.90;;;;;;5032252;28;20083;-74
2022/04/02 01:00:41;;;;;;;13.35;3.00;;;11.50;50.90;;;;;;5032027;28;20474;-76
2022/04/02 01:03:08;;;;;;;12.23;2.30;;;11.60;51.10;;;;;;5030901;28;20105;-77
2022/04/02 01:05:35;;;;;;;15.93;3.33;;;11.60;50.40;;;;;;5030713;28;20125;-77
2022/04/02 01:08:05;;;;;;;11.73;2.78;;;11.60;50.80;;;;;;5032175;28;20021;-77
2022/04/02 01:10:31;;;;;;;13.25;3.10;;;11.60;51.10;;;;;;5030819;28;20037;-75
2022/04/02 01:12:57;;;;;;;11.63;2.75;;;11.60;51.50;;;;;;5031999;28;20564;-79
2022/04/02 01:15:23;;;;;;;13.25;2.63;;;11.50;51.40;;;;;;5032075;28;20054;-76
2022/04/02 01:17:48;;;;;;;20.30;3.85;;;11.50;51.40;;;;;;5035402;28;20047;-78
2022/04/02 01:20:15;;;;;;;16.80;3.00;;;11.40;51.70;;;;;;5035498;28;20093;-76
2022/04/02 01:22:41;;;;;;;12.85;2.97;;;11.40;51.80;;;;;;5035430;28;20029;-77
2022/04/02 01:25:08;;;;;;;16.65;2.85;;;11.40;52.00;;;;;;5034054;28;20017;-78
2022/04/02 01:27:34;;;;;;;18.52;3.35;;;11.40;52.10;;;;;;5035416;28;20048;-78
2022/04/02 01:30:00;;;;;;;15.32;3.15;;;11.40;52.30;;;;;;5035312;28;20014;-77
2022/04/02 01:32:26;;;;;;;12.23;3.05;;;11.40;52.60;;;;;;5035311;28;20087;-78
2022/04/02 01:34:52;;;;;;;19.35;3.17;;;11.40;52.90;;;;;;5035719;28;20029;-76
2022/04/02 01:37:17;;;;;;;13.02;3.45;;;11.40;53.30;;;;;;5036821;28;20039;-79
2022/04/02 01:39:43;;;;;;;13.55;2.97;;;11.40;53.40;;;;;;5036322;28;20109;-79
2022/04/02 01:42:09;;;;;;;15.13;2.60;;;11.40;53.30;;;;;;5035448;28;20025;-78
2022/04/02 01:44:35;;;;;;;11.48;2.15;;;11.40;53.10;;;;;;5035552;28;20073;-77
2022/04/02 01:47:01;;;;;;;14.63;2.72;;;11.40;53.20;;;;;;5034127;28;20030;-77
2022/04/02 01:49:26;;;;;;;12.95;2.78;;;11.40;53.40;;;;;;5035553;28;20427;-77
2022/04/02 01:51:52;;;;;;;13.00;3.08;;;11.40;52.90;;;;;;5035590;28;20025;-76
2022/04/02 01:54:20;;;;;;;15.77;2.70;;;11.40;53.30;;;;;;5034893;28;20425;-76
2022/04/02 01:56:47;;;;;;;10.20;2.45;;;11.50;53.20;;;;;;5035235;28;20029;-78
2022/04/02 01:59:13;;;;;;;15.00;2.65;;;11.50;53.10;;;;;;5035650;28;20032;-77
2022/04/02 02:01:39;;;;;;;14.10;2.50;;;11.50;53.20;;;;;;5036353;28;20025;-77
2022/04/02 02:04:04;;;;;;;11.02;2.70;;;11.40;53.20;;;;;;5035375;28;20113;-77
2022/04/02 02:06:31;;;;;;;14.18;3.20;;;11.50;53.30;;;;;;5036640;28;20037;-76
2022/04/02 02:08:57;;;;;;;16.50;2.67;;;11.50;53.10;;;;;;5035327;28;20034;-75
2022/04/02 02:11:23;;;;;;;10.30;2.58;;;11.50;53.10;;;;;;5035103;28;20048;-75
2022/04/02 02:13:49;;;;;;;12.93;2.70;;;11.50;53.00;;;;;;5034793;28;20529;-74
2022/04/02 02:16:14;;;;;;;15.48;2.65;;;11.50;53.20;;;;;;5034670;28;20037;-76
2022/04/02 02:18:40;;;;;;;8.77;2.15;;;11.50;52.70;;;;;;5034547;28;20378;-75
2022/04/02 02:21:07;;;;;;;13.63;2.53;;;11.40;52.70;;;;;;5033488;28;20029;-75
2022/04/02 02:23:33;;;;;;;16.75;3.10;;;11.40;52.70;;;;;;5034463;28;20022;-78
2022/04/02 02:25:58;;;;;;;14.70;2.53;;;11.40;52.50;;;;;;5034481;28;20071;-76
2022/04/02 02:28:24;;;;;;;11.80;3.25;;;11.40;52.60;;;;;;5034300;28;20021;-75
2022/04/02 02:30:50;;;;;;;12.50;2.38;;;11.40;52.50;;;;;;5034601;28;20439;-75
2022/04/02 02:35:59;;;;;;;14.77;2.70;;;11.40;52.60;;;;;;5034216;28;20536;-77
2022/04/02 02:38:25;;;;;;;16.88;2.85;;;11.40;52.80;;;;;;5033986;28;20029;-75
2022/04/02 02:40:52;;;;;;;13.80;2.70;;;11.40;52.90;;;;;;5033849;28;20120;-76
2022/04/02 02:43:20;;;;;;;15.80;2.92;;;11.30;53.20;;;;;;5034049;28;20029;-74
2022/04/02 02:45:45;;;;;;;13.57;2.78;;;11.30;53.30;;;;;;5033612;28;20405;-75
2022/04/02 02:48:11;;;;;;;14.02;2.85;;;11.20;53.20;;;;;;5033764;28;20113;-77
2022/04/02 02:50:37;;;;;;;13.70;2.90;;;11.30;53.60;;;;;;5032794;28;20070;-77
2022/04/02 02:53:03;;;;;;;15.40;4.18;;;11.30;53.60;;;;;;5033787;28;20033;-79
2022/04/02 02:55:28;;;;;;;13.80;2.88;;;11.40;53.80;;;;;;5033674;28;20053;-77
2022/04/02 02:57:55;;;;;;;13.60;2.95;;;11.40;54.30;;;;;;5033531;28;20033;-75
2022/04/02 03:00:21;;;;;;;14.00;3.00;;;11.30;54.90;;;;;;5033266;28;20097;-76
2022/04/02 03:02:46;;;;;;;12.27;2.85;;;11.30;55.50;;;;;;5033468;28;20025;-76
2022/04/02 03:05:15;;;;;;;11.85;2.40;;;11.30;56.30;;;;;;5048531;28;20096;-78
2022/04/02 03:07:49;;;;;;;12.57;2.90;;;11.20;56.70;;;;;;5033345;28;20497;-78
2022/04/02 03:10:16;;;;;;;;;;;11.10;57.00;;;;;;5033814;28;20059;-75
2022/04/02 03:12:42;;;;;;;17.38;3.13;;;11.00;57.80;;;;;;5033158;28;19909;-76
2022/04/02 03:15:08;;;;;;;23.23;4.32;;;10.90;58.00;;;;;;5033210;28;20091;-75
2022/04/02 03:17:34;;;;;;;14.68;4.00;;;10.90;58.80;;;;;;5033283;28;20037;-75
2022/04/02 03:20:00;;;;;;;15.23;3.50;;;10.80;58.80;;;;;;5033137;28;20026;-75
2022/04/02 03:22:27;;;;;;;18.58;3.47;;;10.80;59.30;;;;;;5033226;28;20458;-76
2022/04/02 03:24:54;;;;;;;19.02;3.10;;;10.80;59.30;;;;;;5033045;28;20486;-78
2022/04/02 03:27:19;;;;;;;12.57;2.90;;;10.80;60.50;;;;;;5033104;28;20023;-76
2022/04/02 03:29:45;;;;;;;14.25;2.97;;;10.80;59.80;;;;;;5033213;28;20029;-77
2022/04/02 03:32:11;;;;;;;12.52;2.72;;;10.80;60.30;;;;;;5031714;28;20021;-79
2022/04/02 03:34:37;;;;;;;14.63;3.05;;;10.80;60.10;;;;;;5032918;28;20049;-77
2022/04/02 03:37:03;;;;;;;16.10;3.55;;;10.80;60.30;;;;;;5032841;28;20386;-75
2022/04/02 03:39:28;;;;;;;14.05;2.80;;;10.80;60.40;;;;;;5032498;28;20022;-76
2022/04/02 03:41:54;;;;;;;18.05;3.10;;;10.80;60.40;;;;;;5032869;28;20184;-76
2022/04/02 03:44:20;;;;;;;16.27;3.30;;;10.80;60.50;;;;;;5032737;28;20028;-77
2022/04/02 03:49:30;;;;;;;20.92;3.13;;;11.00;61.00;;;;;;5032786;28;20060;-76
2022/04/02 03:51:55;;;;;;;15.07;2.78;;;11.00;60.40;;;;;;5032766;28;20410;-75
2022/04/02 03:54:21;;;;;;;13.70;2.63;;;11.00;60.00;;;;;;5032687;28;20498;-75
2022/04/02 03:56:47;;;;;;;15.77;3.40;;;11.00;60.00;;;;;;5032835;28;20026;-77
2022/04/02 03:59:13;;;;;;;14.77;3.17;;;11.00;60.20;;;;;;5032775;28;20030;-75
2022/04/02 04:01:39;;;;;;;13.27;2.60;;;11.10;60.50;;;;;;5031554;28;20026;-75
2022/04/02 04:04:05;;;;;;;12.02;3.42;;;11.10;60.20;;;;;;5032647;28;20049;-77
2022/04/02 04:06:34;;;;;;;15.55;3.38;;;11.20;60.10;;;;;;5032452;28;20037;-76
2022/04/02 04:09:00;;;;;;;15.35;3.17;;;11.20;59.40;;;;;;5031257;28;20493;-76
2022/04/02 04:11:26;;;;;;;12.45;3.10;;;11.20;59.30;;;;;;5032746;28;20394;-76
2022/04/02 04:13:53;;;;;;;12.73;2.90;;;11.30;59.10;;;;;;5033502;28;20036;-78
2022/04/02 04:16:19;;;;;;;16.00;3.15;;;11.30;58.70;;;;;;5034411;28;20411;-76
2022/04/02 04:18:45;;;;;;;13.23;2.72;;;11.40;58.30;;;;;;5035573;28;20026;-76
2022/04/02 04:21:14;;;;;;;12.27;2.45;;;11.40;58.20;;;;;;5035009;28;20017;-77
2022/04/02 04:23:43;;;;;;;13.52;2.80;;;11.40;58.00;;;;;;5033648;28;20025;-79
2022/04/02 04:26:10;;;;;;;14.25;3.58;;;11.40;58.00;;;;;;5033623;28;20056;-76
2022/04/02 04:28:38;;;;;;;13.55;2.90;;;11.40;57.80;;;;;;5033117;28;20028;-76
2022/04/02 04:31:05;;;;;;;15.88;3.10;;;11.40;57.70;;;;;;5033025;28;20446;-76
2022/04/02 04:33:32;;;;;;;11.40;2.70;;;11.40;57.70;;;;;;5033110;28;20056;-75
2022/04/02 04:35:58;;;;;;;16.40;3.00;;;11.40;57.10;;;;;;5033013;28;20022;-78
2022/04/02 04:38:24;;;;;;;12.43;2.58;;;11.40;56.90;;;;;;5033113;28;20112;-76
2022/04/02 04:40:49;;;;;;;20.40;3.30;;;11.40;57.10;;;;;;5032046;28;20031;-78
2022/04/02 04:43:15;;;;;;;14.82;3.50;;;11.40;56.80;;;;;;5031850;28;20030;-77
2022/04/02 04:45:41;;;;;;;13.85;3.00;;;11.40;56.60;;;;;;5032534;28;20045;-76
2022/04/02 04:48:07;;;;;;;11.25;2.60;;;11.40;56.30;;;;;;5032288;28;20033;-78
2022/04/02 04:50:35;;;;;;;12.43;2.58;;;11.40;56.30;;;;;;5032330;28;20037;-77
2022/04/02 04:53:02;;;;;;;14.25;3.15;;;11.40;56.30;;;;;;5036321;28;20095;-76
2022/04/02 04:55:28;;;;;;;11.10;2.25;;;11.40;56.60;;;;;;5036321;28;20035;-77
2022/04/02 04:57:54;;;;;;;11.80;2.58;;;11.40;56.40;;;;;;5036205;28;20029;-79
2022/04/02 05:00:20;;;;;;;11.15;2.50;;;11.30;56.30;;;;;;5036174;28;20601;-77
2022/04/02 05:02:47;;;;;;;14.60;3.05;;;11.30;56.40;;;;;;5036379;28;20105;-78
2022/04/02 05:05:13;;;;;;;13.30;3.83;;;11.30;56.50;;;;;;5036417;28;20084;-79
2022/04/02 05:07:42;;;;;;;11.60;2.50;;;11.30;56.40;;;;;;5036715;28;20025;-75
2022/04/02 05:10:10;;;;;;;12.05;2.70;;;11.40;56.30;;;;;;5035951;28;20064;-76
2022/04/02 05:12:37;;;;;;;15.00;2.97;;;11.40;56.20;;;;;;5036537;28;20033;-77
2022/04/02 05:15:04;;;;;;;14.77;3.35;;;11.40;57.30;;;;;;5036183;28;20040;-77
2022/04/02 05:17:31;;;;;;;10.68;3.65;;;11.30;56.90;;;;;;5035829;28;20020;-75
2022/04/02 05:19:57;;;;;;;21.92;2.60;;;11.30;57.30;;;;;;5035716;28;20475;-76
2022/04/02 05:22:23;;;;;;;15.02;2.88;;;11.30;57.70;;;;;;5035391;28;20025;-76
2022/04/02 05:24:48;;;;;;;17.08;2.70;;;11.30;58.00;;;;;;5035429;28;20029;-77
2022/04/02 05:27:14;;;;;;;10.65;2.38;;;11.20;58.00;;;;;;5035262;28;20493;-78
2022/04/02 05:29:40;;;;;;;14.55;2.67;;;11.20;58.40;;;;;;5035540;28;20108;-75
2022/04/02 05:32:08;;;;;;;12.15;2.67;;;11.20;58.60;;;;;;5035239;28;20119;-75
2022/04/02 05:34:34;;;;;;;12.57;2.80;;;11.20;60.00;;;;;;5035162;28;20089;-74
2022/04/02 05:36:59;;;;;;;16.42;2.72;;;11.20;58.90;;;;;;5035397;28;20026;-76
2022/04/02 05:39:25;;;;;;;11.88;2.42;;;11.10;58.90;;;;;;5034956;28;20025;-75
2022/04/02 05:41:51;;;;;;;25.17;3.88;;;11.10;59.20;;;;;;5035263;28;20098;-76
2022/04/02 05:44:17;;;;;;;14.02;3.58;;;11.10;59.50;;;;;;5036027;28;20106;-78
2022/04/02 05:46:43;;;;;;;15.95;3.38;;;11.10;59.60;;;;;;5034095;28;20084;-76
2022/04/02 05:49:09;;;;;;;13.35;3.22;;;11.20;59.60;;;;;;5035170;28;20018;-77
2022/04/02 05:51:35;;;;;;;13.13;3.13;;;11.20;59.70;;;;;;5035002;28;20061;-77
2022/04/02 05:54:00;;;;;;;11.30;3.38;;;11.20;60.20;;;;;;5035040;28;20087;-77
2022/04/02 05:56:28;;;;;;;11.13;3.03;;;11.20;60.50;;;;;;5035015;28;20470;-76
2022/04/02 05:58:54;;;;;;;18.10;2.92;;;11.20;60.60;;;;;;5034912;28;20017;-78
2022/04/02 06:01:20;;;;;;;9.70;3.10;;;11.20;61.20;;;;;;5034862;28;20021;-78
2022/04/02 06:03:47;;;;;;;14.88;3.17;;;11.20;61.80;;;;;;5034577;28;20565;-77
2022/04/02 06:06:13;;;;;;;14.57;3.00;;;11.20;62.60;;;;;;5035369;28;20033;-77
2022/04/02 06:08:40;;;;;;;13.48;3.40;;;11.30;63.30;;;;;;5067416;28;20017;-77
2022/04/02 06:11:06;;;;;;;13.85;3.08;;;11.30;63.40;;;;;;5035334;28;20025;-76
2022/04/02 06:13:32;;;;;;;16.55;3.10;;;11.40;63.50;;;;;;5034616;28;20474;-78
2022/04/02 06:15:58;;;;;;;14.35;2.88;;;11.50;62.80;;;;;;5034607;28;20087;-79
2022/04/02 06:18:24;;;;;;;17.38;2.65;;;11.60;62.60;;;;;;5034527;28;20041;-77
2022/04/02 06:20:50;;;;;;;14.88;3.25;;;11.60;62.30;;;;;;5034520;28;20044;-77
2022/04/02 06:23:16;;;;;;;10.73;2.88;;;11.70;61.80;;;;;;5033139;28;20063;-76
2022/04/02 06:25:42;;;;;;;12.77;2.60;;;11.80;60.40;;;;;;5034293;28;20101;-78
2022/04/02 06:28:08;;;;;;;13.90;3.30;;;11.90;59.00;;;;;;5034478;28;20072;-80
2022/04/02 06:30:34;;;;;;;14.85;2.60;;;11.90;58.50;;;;;;5034332;28;20025;-78
2022/04/02 06:33:05;;;;;;;14.77;3.22;;;11.90;58.20;;;;;;5033027;28;20124;-77
2022/04/02 06:35:31;;;;;;;12.20;4.13;;;11.80;58.70;;;;;;5034351;28;20096;-75
2022/04/02 06:37:57;;;;;;;13.63;3.90;;;11.70;58.60;;;;;;5034017;28;20490;-76
2022/04/02 06:40:24;;;;;;;16.45;3.53;;;11.60;58.80;;;;;;5034875;28;20029;-78
2022/04/02 06:42:51;;;;;;;17.48;3.10;;;11.50;59.40;;;;;;5034590;28;20055;-78
2022/04/02 06:45:17;;;;;;;10.55;2.33;;;11.40;60.00;;;;;;5065273;28;20054;-76
2022/04/02 06:47:43;;;;;;;16.60;2.95;;;11.30;60.20;;;;;;5034590;28;20036;-77
2022/04/02 06:50:11;;;;;;;13.05;3.08;;;11.40;61.30;;;;;;5036048;28;20021;-77
2022/04/02 06:52:38;;;;;;;13.45;3.22;;;11.40;61.30;;;;;;5042144;28;20034;-78
2022/04/02 06:55:04;;;;;;;13.50;2.53;;;11.50;61.90;;;;;;5037870;28;20040;-75
2022/04/02 06:57:30;;;;;;;16.85;3.67;;;11.50;61.60;;;;;;5036509;28;20072;-77
2022/04/02 06:59:56;;;;;;;9.18;2.15;;;11.60;61.30;;;;;;5035399;28;20026;-79
2022/04/02 07:02:22;;;;;;;14.02;2.88;;;11.50;60.80;;;;;;5032954;28;20021;-75
2022/04/02 07:04:48;;;;;;;11.90;2.50;;;11.40;61.30;;;;;;5033894;28;20446;-78
2022/04/02 07:07:14;;;;;;;11.65;2.55;;;11.40;61.70;;;;;;5033923;28;20040;-80
2022/04/02 07:09:40;;;;;;;9.15;2.30;;;11.40;62.00;;;;;;5032534;28;20026;-77
2022/04/02 07:12:07;;;;;;;10.68;2.42;;;11.40;62.10;;;;;;5033493;28;20489;-77
2022/04/02 07:14:33;;;;;;;10.23;2.50;;;11.50;62.00;;;;;;5032534;28;20037;-77
2022/04/02 07:16:59;;;;;;;9.70;2.53;;;11.50;62.70;;;;;;5032015;28;20127;-77
2022/04/02 07:19:25;;;;;;;9.65;2.22;;;11.60;62.50;;;;;;5033201;28;20494;-76
2022/04/02 07:21:53;;;;;;;9.65;2.28;;;11.70;61.70;;;;;;5033034;28;20466;-78
2022/04/02 07:24:19;;;;;;;7.18;2.00;;;11.70;61.00;;;;;;5033295;28;20041;-77
2022/04/02 07:26:46;;;;;;;11.55;2.25;;;11.80;60.80;;;;;;5035299;28;20061;-80
2022/04/02 07:29:13;;;;;;;11.07;2.67;;;11.70;60.60;;;;;;5035598;28;20488;-77
2022/04/02 07:31:40;;;;;;;9.95;1.77;;;11.80;60.70;;;;;;5033030;28;20136;-81
2022/04/02 07:34:06;;;;;;;11.60;1.90;;;11.80;60.90;;;;;;5064528;28;20044;-78
2022/04/02 07:37:09;;;;;;;13.27;2.10;;;11.70;60.30;;;;;;5033082;28;20026;-78
2022/04/02 07:39:48;;;;;;;7.90;2.22;;;11.80;61.10;;;;;;5033098;28;20033;-80
2022/04/02 07:42:21;;;;;;;13.50;3.10;;;12.00;60.10;;;;;;5033012;28;20041;-80
2022/04/02 07:45:01;;;;;;;12.82;2.50;;;12.10;59.80;;;;;;5032616;28;20053;-79
2022/04/02 07:47:31;;;;;;;10.05;2.63;;;12.30;60.50;;;;;;5032783;28;20076;-77
2022/04/02 07:50:05;;;;;;;14.55;2.22;;;12.60;59.40;;;;;;5031718;28;20033;-78
2022/04/02 07:52:32;;;;;;;9.65;2.60;;;12.90;59.40;;;;;;5032745;28;20423;-80
2022/04/02 07:54:59;;;;;;;9.85;1.98;;;13.10;58.90;;;;;;5032570;28;20561;-75
2022/04/02 07:57:32;;;;;;;14.95;2.97;;;13.40;58.80;;;;;;5032628;28;20014;-77
2022/04/02 08:00:04;;;;;;;10.60;2.53;;;13.60;58.10;;;;;;5032722;28;20036;-77
2022/04/02 08:02:38;;;;;;;10.45;2.58;;;13.90;57.90;;;;;;5032407;28;20095;-80
2022/04/02 08:05:10;;;;;;;9.75;2.50;;;14.20;57.60;;;;;;5032626;28;20025;-78
2022/04/02 08:07:38;;;;;;;13.23;3.60;;;14.20;57.10;;;;;;5032769;28;20029;-77
2022/04/02 08:10:06;;;;;;;9.75;2.13;;;14.30;56.40;;;;;;5032694;28;20104;-80
2022/04/02 08:12:36;;;;;;;15.30;2.78;;;14.20;56.00;;;;;;5032555;28;20018;-80
2022/04/02 08:15:07;;;;;;;11.23;2.58;;;14.10;55.90;;;;;;5032593;28;20447;-77
2022/04/02 08:17:34;;;;;;;11.77;2.53;;;14.00;56.20;;;;;;5032516;28;20033;-77
2022/04/02 08:20:01;;;;;;;37.38;5.43;;;13.80;56.60;;;;;;5032460;28;20095;-77
2022/04/02 08:22:27;;;;;;;15.93;3.03;;;13.60;57.10;;;;;;5032417;28;20025;-75
2022/04/02 08:24:54;;;;;;;13.95;3.08;;;13.40;57.30;;;;;;5032831;28;20037;-78
2022/04/02 08:27:46;;;;;;;7.20;2.13;;;13.30;56.60;;;;;;5036341;28;20018;-79
2022/04/02 08:30:28;;;;;;;11.63;2.60;;;13.20;56.90;;;;;;5035583;28;20041;-79
2022/04/02 08:33:13;;;;;;;11.57;2.30;;;13.40;56.90;;;;;;5035034;28;20075;-77
2022/04/02 08:35:41;;;;;;;7.97;2.30;;;13.50;56.10;;;;;;5036223;28;20149;-80
2022/04/02 08:38:19;;;;;;;9.52;2.13;;;13.60;55.90;;;;;;5036161;28;20032;-78
2022/04/02 08:41:13;;;;;;;11.05;2.50;;;13.60;55.70;;;;;;5036203;28;20032;-77
2022/04/02 08:44:09;;;;;;;9.40;2.67;;;13.40;54.60;;;;;;5036089;28;20080;-77
2022/04/02 08:47:10;;;;;;;9.20;2.13;;;13.40;54.20;;;;;;5036161;28;20049;-79
2022/04/02 08:49:36;;;;;;;10.80;2.20;;;13.30;54.10;;;;;;5036276;28;20037;-80
2022/04/02 08:52:13;;;;;;;11.77;2.50;;;13.10;55.50;;;;;;5036656;28;20025;-77
2022/04/02 08:54:50;;;;;;;9.52;2.00;;;12.80;55.80;;;;;;5036328;28;20108;-80
2022/04/02 08:57:28;;;;;;;14.52;2.65;;;12.70;55.50;;;;;;5034955;28;20083;-80
2022/04/02 09:00:12;;;;;;;10.52;2.70;;;12.70;56.10;;;;;;5035361;28;20586;-81
2022/04/02 09:02:53;;;;;;;9.73;2.35;;;12.70;55.80;;;;;;5035535;28;20032;-80
2022/04/02 09:05:38;;;;;;;10.90;2.22;;;12.70;55.90;;;;;;5036461;28;20017;-78
2022/04/02 09:08:31;;;;;;;10.45;2.15;;;12.80;56.00;;;;;;5036693;28;20553;-78
2022/04/02 09:11:05;;;;;;;13.98;2.55;;;13.00;55.80;;;;;;5038277;28;20056;-78
2022/04/02 09:13:50;;;;;;;12.73;3.55;;;13.20;55.60;;;;;;5041848;28;20351;-76
2022/04/02 09:16:36;;;;;;;8.85;2.40;;;13.40;55.00;;;;;;5036081;28;20029;-78
2022/04/02 09:19:07;;;;;;;10.60;2.50;;;13.50;54.80;;;;;;5035612;28;20018;-77
2022/04/02 09:22:02;;;;;;;10.77;1.88;;;13.50;54.00;;;;;;5035287;28;20032;-76
2022/04/02 09:25:00;;;;;;;9.63;1.98;;;13.40;54.00;;;;;;5034963;28;20051;-77
2022/04/02 09:27:25;;;;;;;10.80;2.33;;;13.40;53.50;;;;;;5035329;28;20033;-79
2022/04/02 09:29:57;;;;;;;9.40;1.95;;;13.50;53.20;;;;;;5035481;28;20026;-79
2022/04/02 09:32:38;;;;;;;9.45;2.15;;;13.50;53.00;;;;;;5034814;28;20489;-76
2022/04/02 09:35:10;;;;;;;10.10;1.80;;;13.50;52.30;;;;;;5034647;28;20509;-76
2022/04/02 09:38:14;;;;;;;8.35;2.47;;;13.50;52.10;;;;;;5033799;28;20025;-76
2022/04/02 09:40:48;;;;;;;9.38;2.05;;;13.50;52.00;;;;;;5035065;28;20459;-78
2022/04/02 09:43:26;;;;;;;10.75;2.22;;;13.50;51.40;;;;;;5034715;28;20022;-78
2022/04/02 09:46:21;;;;;;;8.95;2.05;;;13.60;49.80;;;;;;5033650;28;20049;-79
2022/04/02 09:49:00;;;;;;;11.77;2.20;;;13.70;49.90;;;;;;5031508;28;20474;-80
2022/04/02 09:51:34;;;;;;;8.07;1.73;;;13.70;50.10;;;;;;5035224;28;20025;-78
2022/04/02 09:54:13;;;;;;;7.82;2.13;;;13.70;47.30;;;;;;5034644;28;20034;-76
2022/04/02 09:56:50;;;;;;;10.63;2.53;;;13.70;47.60;;;;;;5034874;28;20474;-77
2022/04/02 09:59:49;;;;;;;11.07;1.90;;;13.80;47.60;;;;;;5034604;28;20104;-77
2022/04/02 10:02:43;;;;;;;9.85;2.10;;;13.90;49.20;;;;;;5034862;28;20454;-79
2022/04/02 10:05:14;;;;;;;6.00;1.73;;;14.00;48.20;;;;;;5034596;28;20033;-78
2022/04/02 10:07:59;;;;;;;13.10;2.78;;;14.10;48.20;;;;;;5034568;28;20391;-77
2022/04/02 10:10:28;;;;;;;9.57;1.73;;;14.20;47.70;;;;;;5034602;28;20125;-78
2022/04/02 10:12:55;;;;;;;9.43;1.92;;;14.20;48.00;;;;;;5035650;28;20112;-80
2022/04/02 10:15:22;;;;;;;7.82;2.00;;;14.10;47.90;;;;;;5036695;28;20063;-79
2022/04/02 10:17:53;;;;;;;12.07;2.40;;;14.10;48.00;;;;;;5034610;28;20433;-78
2022/04/02 10:20:21;;;;;;;11.48;2.30;;;14.30;48.40;;;;;;5035028;28;20021;-76
2022/04/02 10:22:52;;;;;;;11.38;2.35;;;14.30;47.90;;;;;;5033896;28;20053;-78
2022/04/02 10:25:18;;;;;;;10.13;1.95;;;14.50;48.40;;;;;;5034899;28;20030;-78
2022/04/02 10:27:45;;;;;;;8.00;2.53;;;14.60;48.10;;;;;;5034446;28;20018;-81
2022/04/02 10:30:16;;;;;;;9.18;1.80;;;14.60;47.90;;;;;;5034383;28;20036;-80
2022/04/02 10:33:43;;;;;;;11.32;1.98;;;14.50;47.70;;;;;;5033897;28;20017;-80
2022/04/02 10:35:46;;;;;;;15.02;2.20;;;14.50;46.90;;;;;;5034222;28;20030;-78
2022/04/02 10:48:52;;;;;;;15.63;4.55;;;14.50;44.30;;;;;;5034114;28;20125;-80
2022/04/02 10:51:23;;;;;;;9.40;2.08;;;14.60;45.60;;;;;;5034044;28;20124;-79
2022/04/02 10:54:02;;;;;;;13.43;1.92;;;14.70;45.20;;;;;;5033597;28;20029;-79
2022/04/02 10:56:34;;;;;;;10.05;2.13;;;14.80;43.50;;;;;;5033684;28;20017;-78
2022/04/02 10:59:00;;;;;;;9.52;1.80;;;15.00;44.30;;;;;;5033933;28;20418;-77
2022/04/02 11:01:27;;;;;;;8.25;2.20;;;15.10;44.60;;;;;;5033398;28;20037;-79
2022/04/02 11:03:56;;;;;;;8.15;1.70;;;15.10;44.50;;;;;;5033379;28;20018;-79
2022/04/02 11:06:51;;;;;;;6.35;1.90;;;15.00;44.50;;;;;;5033467;28;20025;-78
2022/04/02 11:09:39;;;;;;;11.23;2.10;;;14.90;44.90;;;;;;5033657;28;20453;-79
2022/04/02 11:12:09;;;;;;;9.88;2.50;;;14.80;45.30;;;;;;5033434;28;20028;-76
2022/04/02 11:14:50;;;;;;;9.00;2.30;;;14.70;45.40;;;;;;5033114;28;20044;-77
2022/04/02 11:17:41;;;;;;;9.27;2.15;;;14.50;45.40;;;;;;5031889;28;20124;-79
2022/04/02 11:20:21;;;;;;;10.13;2.60;;;14.40;45.40;;;;;;5033530;28;20410;-79
2022/04/02 11:22:57;;;;;;;5.95;1.77;;;14.20;45.00;;;;;;5033331;28;20030;-77
2022/04/02 11:25:29;;;;;;;9.75;1.95;;;14.20;45.40;;;;;;5033502;28;20029;-78
2022/04/02 11:28:05;;;;;;;7.30;1.90;;;14.30;45.30;;;;;;5033713;28;20026;-78
2022/04/02 11:30:32;;;;;;;12.00;2.28;;;14.40;45.00;;;;;;5034156;28;20029;-80
2022/04/02 11:33:05;;;;;;;16.75;2.60;;;14.50;45.20;;;;;;5033532;28;20125;-81
2022/04/02 11:35:35;;;;;;;9.18;2.35;;;14.60;45.30;;;;;;5033944;28;20482;-77
2022/04/02 11:38:20;;;;;;;10.73;2.45;;;14.70;45.20;;;;;;5034496;28;20021;-77
2022/04/02 11:40:54;;;;;;;10.02;2.50;;;14.90;45.40;;;;;;5035908;28;20474;-78
2022/04/02 11:43:34;;;;;;;10.57;2.67;;;15.10;45.70;;;;;;5033923;28;20036;-80
2022/04/02 11:46:02;;;;;;;11.73;2.40;;;15.30;45.60;;;;;;5038498;28;20029;-78
2022/04/02 11:48:33;;;;;;;11.38;3.08;;;15.20;44.90;;;;;;5035704;28;20086;-82
2022/04/02 11:51:17;;;;;;;7.65;2.13;;;15.10;44.80;;;;;;5035483;28;20050;-80
2022/04/02 11:53:44;;;;;;;14.88;2.15;;;15.30;44.70;;;;;;5034277;28;20461;-80
2022/04/02 11:56:29;;;;;;;8.32;1.95;;;15.30;44.40;;;;;;5032474;28;20033;-77
2022/04/02 11:58:59;;;;;;;10.45;2.42;;;15.10;43.60;;;;;;5033168;28;20034;-80
2022/04/02 12:01:38;;;;;;;11.77;2.28;;;15.10;44.60;;;;;;5032934;28;20059;-80
2022/04/02 12:04:09;;;;;;;12.60;2.58;;;15.10;44.50;;;;;;5033054;28;20026;-78
2022/04/02 12:06:36;;;;;;;8.48;2.30;;;15.20;44.20;;;;;;5033072;28;20029;-79
2022/04/02 12:09:10;;;;;;;10.93;3.42;;;15.30;43.90;;;;;;5032937;28;20482;-82
2022/04/02 12:11:36;;;;;;;11.43;2.60;;;15.20;43.20;;;;;;5032965;28;20026;-79
2022/04/02 12:14:05;;;;;;;9.15;2.53;;;15.30;43.20;;;;;;5032870;28;20169;-76
2022/04/02 12:16:32;;;;;;;10.95;2.47;;;15.30;43.00;;;;;;5031348;28;20034;-76
2022/04/02 12:18:58;;;;;;;11.20;2.50;;;15.40;43.20;;;;;;5032613;28;20359;-77
2022/04/02 12:21:31;;;;;;;13.15;2.35;;;15.60;43.40;;;;;;5033783;28;20386;-78
2022/04/02 12:24:00;;;;;;;8.68;2.20;;;15.60;42.80;;;;;;5033678;28;20057;-79
2022/04/02 12:26:27;;;;;;;7.03;2.30;;;15.70;43.30;;;;;;5034418;28;20025;-77
2022/04/02 12:29:00;;;;;;;10.75;2.38;;;15.70;43.20;;;;;;5032929;28;20128;-79
2022/04/02 12:31:27;;;;;;;10.30;2.78;;;15.80;43.40;;;;;;5032334;28;20033;-76
2022/04/02 12:33:55;;;;;;;9.30;2.55;;;15.80;43.80;;;;;;5032432;28;20101;-78
2022/04/02 12:36:35;;;;;;;10.13;2.35;;;15.70;42.80;;;;;;5031549;28;20029;-80
2022/04/02 12:39:03;;;;;;;11.23;2.38;;;15.60;43.20;;;;;;5032906;28;20025;-78
2022/04/02 12:41:29;;;;;;;10.45;2.20;;;15.40;43.20;;;;;;5031493;28;20030;-76
2022/04/02 12:44:09;;;;;;;8.07;1.92;;;15.30;43.30;;;;;;5032634;28;20029;-78
2022/04/02 12:46:35;;;;;;;13.38;2.28;;;15.30;42.90;;;;;;5032966;28;20026;-79
2022/04/02 12:49:01;;;;;;;9.63;2.38;;;15.20;43.10;;;;;;5032550;28;20075;-77
2022/04/02 12:51:27;;;;;;;9.18;2.60;;;15.10;42.80;;;;;;5032556;28;20482;-78
2022/04/02 12:53:58;;;;;;;11.45;2.60;;;15.10;42.80;;;;;;5032555;28;20029;-78
2022/04/02 12:56:30;;;;;;;8.40;2.15;;;15.10;43.30;;;;;;5031834;28;20033;-80
2022/04/02 12:58:57;;;;;;;9.23;2.25;;;15.20;42.30;;;;;;5033407;28;20025;-79
2022/04/02 13:01:23;;;;;;;9.20;1.95;;;15.20;42.60;;;;;;5031284;28;20022;-80
2022/04/02 13:04:02;;;;;;;10.48;1.95;;;15.40;42.40;;;;;;5032137;28;20117;-77
2022/04/02 13:06:30;;;;;;;10.35;2.60;;;15.40;42.10;;;;;;5032750;28;20068;-83
2022/04/02 13:08:57;;;;;;;9.65;1.95;;;15.30;43.20;;;;;;5033552;28;20037;-81